Time;durP1;ratioP1;P1;durP2;ratioP2;P2;SDS_P1;SDS_P2;PMS_P1;PMS_P2;Temp;Humidity;BMP_temperature;BMP_pressure;BME280_temperature;BME280_humidity;BME280_pressure;Samples;Min_cycle;Max_cycle;Signal;HPM_P1;HPM_P2
2021/07/10 00:04:55;;;;;;;1999.90;999.90;;;;;;;16.59;90.43;101216.84;15852907;28;20036;-62
2021/07/10 00:12:29;;;;;;;1999.90;999.90;;;;;;;16.78;90.26;101210.53;15870863;28;20036;-62
2021/07/10 00:20:01;;;;;;;;;;;;;;;16.63;90.63;101205.66;15869760;28;20036;-62
2021/07/10 00:27:35;;;;;;;1999.90;999.90;;;;;;;16.70;90.32;101217.16;15868654;28;20060;-62
2021/07/10 00:35:08;;;;;;;1999.90;999.90;;;;;;;16.64;91.30;101208.13;15869007;28;20031;-62
2021/07/10 00:42:45;;;;;;;1999.90;999.90;;;;;;;16.70;90.91;101203.88;15868983;28;20097;-62
2021/07/10 00:50:20;;;;;;;1999.90;999.90;;;;;;;16.73;90.87;101197.53;15864883;28;20040;-62
2021/07/10 00:57:55;;;;;;;1999.90;999.90;;;;;;;16.72;91.24;101195.06;15867565;28;20469;-61
2021/07/10 01:05:29;;;;;;;1999.90;999.90;;;;;;;16.98;89.70;101195.31;15858850;28;20071;-63
2021/07/10 01:13:03;;;;;;;1999.90;999.90;;;;;;;17.08;88.93;101199.59;15849025;28;20040;-60
2021/07/10 01:20:44;;;;;;;1999.90;999.90;;;;;;;16.79;91.35;101186.00;15867623;28;20055;-62
2021/07/10 01:28:17;;;;;;;1999.90;999.90;;;;;;;16.99;90.98;101188.53;15867103;28;20040;-61
2021/07/10 01:35:51;;;;;;;;;;;;;;;17.26;90.49;101188.75;15866404;28;20048;-61
2021/07/10 01:43:23;;;;;;;1999.90;999.90;;;;;;;17.22;90.93;101171.75;15865780;28;19919;-61
2021/07/10 01:50:57;;;;;;;1999.90;999.90;;;;;;;17.31;90.70;101172.38;15864259;28;20127;-62
2021/07/10 01:58:29;;;;;;;1999.90;999.90;;;;;;;17.38;90.64;101173.69;15847983;28;20549;-63
2021/07/10 02:06:03;;;;;;;1999.90;999.90;;;;;;;17.42;90.91;101168.97;15864522;28;20089;-63
2021/07/10 02:13:36;;;;;;;1999.90;999.90;;;;;;;17.46;91.21;101159.38;15864491;28;20058;-63
2021/07/10 02:21:10;;;;;;;1999.90;999.90;;;;;;;17.57;91.23;101149.16;15865361;28;20524;-61
2021/07/10 02:28:42;;;;;;;1999.90;999.90;;;;;;;17.70;91.02;101152.66;15848792;28;20126;-62
2021/07/10 02:36:17;;;;;;;;;;;;;;;17.68;90.95;101162.66;15864819;28;20580;-61
2021/07/10 02:43:49;;;;;;;1999.90;999.90;;;;;;;17.66;91.12;101159.41;15869341;28;19950;-62
2021/07/10 02:51:22;;;;;;;1999.90;999.90;;;;;;;17.84;90.57;101161.44;15858079;28;20114;-62
2021/07/10 02:58:54;;;;;;;1999.90;999.90;;;;;;;17.88;90.08;101167.97;15874972;28;20371;-61
2021/07/10 03:06:28;;;;;;;1999.90;999.90;;;;;;;17.83;90.32;101165.47;15874307;28;20082;-60
2021/07/10 03:14:00;;;;;;;1999.90;999.90;;;;;;;17.98;89.69;101162.91;15855344;28;20036;-61
2021/07/10 03:21:34;;;;;;;1999.90;999.90;;;;;;;17.96;90.25;101162.47;15872393;28;20518;-62
2021/07/10 03:29:06;;;;;;;1999.90;999.90;;;;;;;17.96;90.03;101170.94;15872858;28;20051;-62
2021/07/10 03:36:40;;;;;;;1999.90;999.90;;;;;;;17.86;89.97;101189.31;15855212;28;20047;-62
2021/07/10 03:44:12;;;;;;;1999.90;999.90;;;;;;;18.06;88.55;101179.63;15865810;28;20040;-59
2021/07/10 03:51:48;;;;;;;1999.90;999.90;;;;;;;17.94;88.86;101181.81;15872181;28;20044;-61
2021/07/10 03:59:20;;;;;;;1999.90;999.90;;;;;;;17.72;88.19;101187.00;15870301;28;20044;-61
2021/07/10 04:06:53;;;;;;;1999.90;999.90;;;;;;;17.80;88.47;101190.78;15870361;28;20043;-63
2021/07/10 04:14:29;;;;;;;1999.90;999.90;;;;;;;17.75;88.30;101200.38;15851879;28;20172;-61
2021/07/10 04:22:03;;;;;;;1999.90;999.90;;;;;;;17.84;87.67;101211.44;15903716;27;20544;-62
2021/07/10 04:29:35;;;;;;;1999.90;999.90;;;;;;;18.03;86.92;101221.91;15877133;27;20488;-62
2021/07/10 04:37:08;;;;;;;1999.90;999.90;;;;;;;17.96;86.24;101236.72;15851075;28;20488;-62
2021/07/10 04:44:40;;;;;;;1999.90;999.90;;;;;;;17.88;87.31;101241.38;15868776;28;20081;-62
2021/07/10 04:52:20;;;;;;;1999.90;999.90;;;;;;;17.98;86.65;101245.63;15865389;22;20500;-74
2021/07/10 04:59:52;;;;;;;1999.90;999.90;;;;;;;18.07;86.62;101259.53;15858793;28;20050;-73
2021/07/10 05:07:26;;;;;;;1999.90;999.90;;;;;;;18.18;86.22;101266.22;15839437;28;20042;-74
2021/07/10 05:14:58;;;;;;;1999.90;999.90;;;;;;;17.86;86.99;101271.16;15824461;28;20514;-74
2021/07/10 05:22:34;;;;;;;1999.90;999.90;;;;;;;18.13;86.19;101280.63;15824434;28;20097;-74
2021/07/10 05:30:12;;;;;;;1999.90;999.90;;;;;;;18.09;85.67;101288.19;15801831;28;20044;-75
2021/07/10 05:37:46;;;;;;;1999.90;999.90;;;;;;;18.22;84.44;101289.69;15842262;28;20044;-75
2021/07/10 05:45:19;;;;;;;1999.90;999.90;;;;;;;18.22;84.05;101291.69;15891001;22;20183;-58
2021/07/10 05:53:07;;;;;;;1999.90;999.90;;;;;;;18.59;82.98;101289.25;15913229;27;20047;-60
2021/07/10 06:00:40;;;;;;;1999.90;999.90;;;;;;;18.39;83.23;101292.06;15895251;27;20039;-63
2021/07/10 06:08:14;;;;;;;1999.90;999.90;;;;;;;18.66;81.42;101298.72;15888443;27;20039;-63
2021/07/10 06:15:46;;;;;;;1999.90;999.90;;;;;;;18.53;82.37;101302.84;15987726;27;20107;-61
2021/07/10 06:23:21;;;;;;;1999.90;999.90;;;;;;;18.36;82.67;101306.97;15983522;27;20119;-56
2021/07/10 06:30:53;;;;;;;1999.90;999.90;;;;;;;18.85;81.54;101303.50;16002318;27;20160;-60
2021/07/10 06:38:26;;;;;;;1999.90;999.90;;;;;;;18.73;81.41;101318.63;15983031;27;20103;-62
2021/07/10 06:45:59;;;;;;;1999.90;999.90;;;;;;;18.54;80.42;101335.56;16001588;27;20134;-62
2021/07/10 06:53:32;;;;;;;1999.90;999.90;;;;;;;18.54;79.47;101335.56;15981782;27;20074;-61
2021/07/10 07:01:05;;;;;;;1999.90;999.90;;;;;;;19.02;78.53;101333.31;15981997;27;20495;-62
2021/07/10 07:08:38;;;;;;;1999.90;999.90;;;;;;;19.57;77.48;101323.38;15981332;27;20076;-60
2021/07/10 07:16:10;;;;;;;1999.90;999.90;;;;;;;20.28;72.90;101329.25;15981335;27;20563;-61
2021/07/10 07:23:44;;;;;;;1999.90;999.90;;;;;;;19.99;73.24;101333.72;15998930;27;20070;-57
2021/07/10 07:31:17;;;;;;;1999.90;999.90;;;;;;;20.21;71.36;101334.00;15978343;27;20046;-59
2021/07/10 07:38:51;;;;;;;1999.90;999.90;;;;;;;20.70;69.47;101348.84;15979674;27;20444;-59
2021/07/10 07:46:23;;;;;;;1999.90;999.90;;;;;;;20.97;69.33;101345.94;15961373;27;20045;-61
2021/07/10 07:53:56;;;;;;;1999.90;999.90;;;;;;;20.38;69.02;101350.44;15977956;27;20099;-59
2021/07/10 08:01:29;;;;;;;1999.90;999.90;;;;;;;21.03;67.71;101353.69;15976888;27;20086;-57
2021/07/10 08:09:03;;;;;;;1999.90;999.90;;;;;;;21.82;65.97;101368.63;15976959;27;20038;-64
2021/07/10 08:16:36;;;;;;;1999.90;999.90;;;;;;;21.79;68.45;101364.56;15959432;27;20047;-57
2021/07/10 08:24:10;;;;;;;1999.90;999.90;;;;;;;22.39;65.41;101361.28;15976803;27;20045;-62
2021/07/10 08:31:43;;;;;;;1999.90;999.90;;;;;;;22.22;64.73;101359.19;15976053;27;20042;-65
2021/07/10 08:39:16;;;;;;;1999.90;999.90;;;;;;;23.07;61.22;101364.41;15975724;27;20042;-62
2021/07/10 08:46:51;;;;;;;1999.90;999.90;;;;;;;23.06;61.65;101370.50;15976085;27;20064;-63
2021/07/10 08:54:25;;;;;;;1999.90;999.90;;;;;;;23.19;59.46;101371.75;15959717;27;20035;-60
2021/07/10 09:01:59;;;;;;;1999.90;999.90;;;;;;;24.17;58.20;101366.44;15892879;27;20047;-65
2021/07/10 09:09:46;;;;;;;1999.90;999.90;;;;;;;23.20;61.28;101370.53;15926787;27;20401;-63
2021/07/10 09:17:20;;;;;;;1999.90;999.90;;;;;;;24.54;58.08;101360.25;15898936;27;20038;-61
2021/07/10 09:24:53;;;;;;;1999.90;999.90;;;;;;;23.97;58.90;101377.50;15907318;27;20096;-65
2021/07/10 09:32:26;;;;;;;1999.90;999.90;;;;;;;23.89;57.23;101375.88;15906606;27;20556;-63
2021/07/10 09:40:02;;;;;;;1999.90;999.90;;;;;;;24.04;55.88;101376.66;15921008;27;20039;-63
2021/07/10 09:47:37;;;;;;;1999.90;999.90;;;;;;;24.07;56.30;101388.09;15909325;27;20308;-63
2021/07/10 09:55:13;;;;;;;1999.90;999.90;;;;;;;23.98;57.75;101381.19;15927404;27;20092;-63
2021/07/10 10:02:48;;;;;;;1999.90;999.90;;;;;;;23.84;55.62;101377.09;15907670;28;20039;-63
2021/07/10 10:10:26;;;;;;;1999.90;999.90;;;;;;;24.09;55.92;101377.09;15926809;28;20051;-65
2021/07/10 10:17:59;;;;;;;1999.90;999.90;;;;;;;23.68;56.49;101370.19;15924686;28;20039;-66
2021/07/10 10:25:34;;;;;;;1999.90;999.90;;;;;;;25.81;50.92;101354.16;15925679;28;20487;-64
2021/07/10 10:33:06;;;;;;;1999.90;999.90;;;;;;;25.11;51.55;101356.31;15925309;28;20105;-65
2021/07/10 10:40:40;;;;;;;;;;;;;;;26.05;51.30;101352.28;15925921;28;20385;-62
2021/07/10 10:48:17;;;;;;;1999.90;999.90;;;;;;;25.20;49.46;101354.63;15888877;28;20026;-62
2021/07/10 10:55:50;;;;;;;1999.90;999.90;;;;;;;26.40;49.16;101353.97;15962191;22;20129;-60
2021/07/10 11:03:23;;;;;;;1999.90;999.90;;;;;;;26.65;46.75;101354.47;15994599;27;20067;-62
2021/07/10 11:11:13;;;;;;;;;;;;;;;27.62;49.32;101353.88;15985024;27;20047;-62
2021/07/10 11:18:54;;;;;;;1999.90;999.90;;;;;;;27.26;47.41;101351.59;16002118;27;19926;-63
2021/07/10 11:26:26;;;;;;;1999.90;999.90;;;;;;;28.12;45.50;101350.94;15982494;27;20057;-63
2021/07/10 11:34:10;;;;;;;;;;;;;;;28.90;43.84;101347.75;16002045;27;20034;-62
2021/07/10 11:41:42;;;;;;;1999.90;999.90;;;;;;;29.40;42.03;101341.63;16001186;27;20276;-61
2021/07/10 11:49:40;;;;;;;1999.90;999.90;;;;;;;29.27;44.21;101341.50;15982518;27;20043;-62
2021/07/10 11:57:14;;;;;;;1999.90;999.90;;;;;;;28.25;44.19;101344.56;15999850;27;20065;-61
2021/07/10 12:05:00;;;;;;;1999.90;999.90;;;;;;;30.53;40.84;101313.91;15999936;27;20451;-63
2021/07/10 12:12:46;;;;;;;1999.90;999.90;;;;;;;30.13;39.84;101328.66;15981252;27;20427;-60
2021/07/10 12:20:22;;;;;;;1999.90;999.90;;;;;;;28.28;42.42;101332.22;15999157;27;20056;-62
2021/07/10 12:27:58;;;;;;;1999.90;999.90;;;;;;;29.08;42.04;101330.13;15999188;27;20039;-61
2021/07/10 12:35:31;;;;;;;1999.90;999.90;;;;;;;32.01;39.65;101335.50;15979736;27;20419;-61
2021/07/10 12:43:04;;;;;;;1999.90;999.90;;;;;;;31.60;36.22;101324.97;15979523;27;20073;-62
2021/07/10 12:50:38;;;;;;;1999.90;999.90;;;;;;;33.56;34.55;101338.56;15985305;27;20043;-60
2021/07/10 12:58:13;;;;;;;1999.90;999.90;;;;;;;31.76;35.55;101326.91;15931669;27;20051;-64
2021/07/10 13:05:47;;;;;;;1999.90;999.90;;;;;;;31.07;39.74;101321.75;15986750;27;20038;-62
2021/07/10 13:13:22;;;;;;;1999.90;999.90;;;;;;;29.79;38.73;101311.06;15995659;27;20043;-62
2021/07/10 13:20:58;;;;;;;1999.90;999.90;;;;;;;29.44;40.87;101309.91;15988434;27;20065;-63
2021/07/10 13:28:34;;;;;;;1999.90;999.90;;;;;;;29.13;40.70;101304.50;15993951;27;20087;-63
2021/07/10 13:36:15;;;;;;;1999.90;999.90;;;;;;;28.46;43.81;101293.31;15961350;27;20486;-63
2021/07/10 13:44:02;;;;;;;1999.90;999.90;;;;;;;28.61;44.33;101285.19;15994578;27;20077;-62
2021/07/10 13:51:35;;;;;;;1999.90;999.90;;;;;;;29.01;41.80;101285.91;15993596;27;20046;-63
2021/07/10 13:59:07;;;;;;;1999.90;999.90;;;;;;;29.33;42.95;101287.19;15966039;27;20040;-62
2021/07/10 14:06:41;;;;;;;1999.90;999.90;;;;;;;29.08;42.08;101284.16;15910536;28;20039;-62
2021/07/10 14:14:13;;;;;;;1999.90;999.90;;;;;;;28.49;41.28;101279.31;15910986;28;20392;-62
2021/07/10 14:21:47;;;;;;;1999.90;999.90;;;;;;;28.91;41.93;101277.56;15929073;28;20115;-63
2021/07/10 14:29:19;;;;;;;1999.90;999.90;;;;;;;28.38;43.35;101280.34;15928530;28;20126;-62
2021/07/10 14:36:52;;;;;;;1999.90;999.90;;;;;;;28.34;41.78;101264.44;15929435;27;20566;-61
2021/07/10 14:44:24;;;;;;;1999.90;999.90;;;;;;;28.45;41.28;101263.00;15961299;27;20042;-60
2021/07/10 14:51:58;;;;;;;1999.90;999.90;;;;;;;28.56;43.46;101251.28;16003123;27;20047;-60
2021/07/10 14:59:30;;;;;;;1999.90;999.90;;;;;;;28.18;42.27;101247.97;16002138;27;20070;-60
2021/07/10 15:07:04;;;;;;;1999.90;999.90;;;;;;;28.22;44.05;101239.28;16002693;27;20061;-59
2021/07/10 15:14:37;;;;;;;1999.90;999.90;;;;;;;28.09;43.92;101239.94;15978508;27;20047;-59
2021/07/10 15:22:11;;;;;;;;;;;;;;;27.92;42.57;101237.44;15983692;27;20406;-59
2021/07/10 15:29:43;;;;;;;1999.90;999.90;;;;;;;27.68;41.33;101239.56;15979671;27;20014;-60
2021/07/10 15:37:17;;;;;;;;;;;;;;;27.92;41.47;101228.81;16000827;27;20495;-58
2021/07/10 15:44:49;;;;;;;1999.90;999.90;;;;;;;27.91;43.18;101219.41;15964937;27;20324;-60
2021/07/10 15:52:22;;;;;;;;;;;;;;;27.89;39.79;101216.19;15985080;27;20079;-59
2021/07/10 15:59:54;;;;;;;1999.90;999.90;;;;;;;27.52;42.19;101206.66;15954712;27;19919;-61
2021/07/10 16:07:28;;;;;;;1999.90;999.90;;;;;;;27.78;41.63;101202.06;15991097;27;20058;-61
2021/07/10 16:15:00;;;;;;;1999.90;999.90;;;;;;;27.52;45.17;101195.19;15962440;27;20475;-61
2021/07/10 16:22:33;;;;;;;1999.90;999.90;;;;;;;27.04;43.71;101187.06;15975315;27;20050;-62
2021/07/10 16:30:09;;;;;;;1999.90;999.90;;;;;;;27.17;45.02;101181.50;15958270;27;20039;-62
2021/07/10 16:37:43;;;;;;;1999.90;999.90;;;;;;;27.04;42.10;101172.75;15964967;27;20069;-62
2021/07/10 16:45:15;;;;;;;1999.90;999.90;;;;;;;26.95;43.48;101172.44;15971471;27;20107;-60
2021/07/10 16:52:49;;;;;;;;;;;;;;;26.84;42.19;101186.94;15936403;22;20045;-61
2021/07/10 17:00:23;;;;;;;1999.90;999.90;;;;;;;26.96;43.44;101179.78;15709985;28;19920;-61
2021/07/10 17:07:57;;;;;;;1999.90;999.90;;;;;;;26.66;43.13;101183.56;15737717;28;20477;-60
2021/07/10 17:15:29;;;;;;;1999.90;999.90;;;;;;;26.66;46.61;101184.34;15785536;28;20067;-61
2021/07/10 17:23:03;;;;;;;1999.90;999.90;;;;;;;26.52;45.27;101178.06;15748139;28;20384;-61
2021/07/10 17:30:36;;;;;;;1999.90;999.90;;;;;;;26.37;50.86;101189.72;15779456;28;20040;-61
2021/07/10 17:38:09;;;;;;;1999.90;999.90;;;;;;;26.18;52.75;101196.09;15730302;28;20044;-61
2021/07/10 17:45:42;;;;;;;1999.90;999.90;;;;;;;25.97;54.13;101194.31;15765407;28;20040;-60
2021/07/10 17:53:16;;;;;;;1999.90;999.90;;;;;;;25.77;54.67;101190.47;15770092;28;20059;-60
2021/07/10 18:00:48;;;;;;;1999.90;999.90;;;;;;;25.60;56.33;101183.69;15735932;28;20076;-61
2021/07/10 18:08:22;;;;;;;1999.90;999.90;;;;;;;25.46;56.43;101183.84;15764704;28;20407;-59
2021/07/10 18:15:54;;;;;;;1999.90;999.90;;;;;;;25.26;57.51;101187.31;15785312;28;20094;-60
2021/07/10 18:23:28;;;;;;;1999.90;999.90;;;;;;;25.02;59.09;101186.31;15762205;28;20494;-60
2021/07/10 18:31:00;;;;;;;1999.90;999.90;;;;;;;24.76;59.96;101187.72;15773023;28;20059;-60
2021/07/10 18:38:34;;;;;;;1999.90;999.90;;;;;;;24.59;60.58;101188.66;15800802;28;20040;-59
2021/07/10 18:46:06;;;;;;;1999.90;999.90;;;;;;;24.33;59.75;101194.94;15754294;28;20101;-61
2021/07/10 18:53:40;;;;;;;1999.90;999.90;;;;;;;24.19;60.00;101204.34;15782492;28;20048;-61
2021/07/10 19:01:15;;;;;;;1999.90;999.90;;;;;;;23.95;62.29;101205.25;15735903;28;20071;-61
2021/07/10 19:08:48;;;;;;;1999.90;999.90;;;;;;;23.78;62.56;101207.78;15765081;28;20094;-59
2021/07/10 19:16:20;;;;;;;1999.90;999.90;;;;;;;23.60;64.16;101209.88;15747637;28;20189;-57
2021/07/10 19:23:54;;;;;;;1999.90;999.90;;;;;;;23.44;64.62;101200.91;15742324;28;20064;-60
2021/07/10 19:31:26;;;;;;;1999.90;999.90;;;;;;;23.19;65.66;101210.31;15785039;28;20060;-59
2021/07/10 19:39:00;;;;;;;1999.90;999.90;;;;;;;23.08;66.21;101218.03;15780431;28;20036;-60
2021/07/10 19:46:33;;;;;;;1999.90;999.90;;;;;;;22.91;67.51;101215.97;15761916;28;20032;-59
2021/07/10 19:54:06;;;;;;;1999.90;999.90;;;;;;;22.73;67.73;101211.09;15785158;28;20036;-60
2021/07/10 20:01:38;;;;;;;1999.90;999.90;;;;;;;22.55;67.75;101210.22;15742982;28;20052;-59
2021/07/10 20:09:12;;;;;;;1999.90;999.90;;;;;;;22.37;68.10;101207.34;15802167;28;20150;-59
2021/07/10 20:16:44;;;;;;;1999.90;999.90;;;;;;;22.17;67.94;101215.41;15747961;28;20123;-61
2021/07/10 20:24:18;;;;;;;1999.90;999.90;;;;;;;22.00;69.02;101215.31;15757432;28;20044;-61
2021/07/10 20:31:50;;;;;;;1999.90;999.90;;;;;;;;;;15728078;28;20063;-59
2021/07/10 20:39:24;;;;;;;1999.90;999.90;;;;;;;21.79;70.89;101216.84;15755077;28;20040;-60
2021/07/10 20:46:56;;;;;;;1999.90;999.90;;;;;;;21.63;71.70;101213.50;15740167;28;20130;-60
2021/07/10 20:54:30;;;;;;;1999.90;999.90;;;;;;;21.55;71.83;101212.63;15766484;28;20641;-61
2021/07/10 21:02:02;;;;;;;1999.90;999.90;;;;;;;21.37;71.93;101214.56;15786171;28;20127;-62
2021/07/10 21:09:36;;;;;;;1999.90;999.90;;;;;;;21.30;71.74;101212.47;15726352;28;20412;-62
2021/07/10 21:17:08;;;;;;;1999.90;999.90;;;;;;;21.20;72.38;101218.84;15772917;28;20106;-58
2021/07/10 21:24:41;;;;;;;1999.90;999.90;;;;;;;21.16;73.24;101211.53;15737550;28;20534;-60
2021/07/10 21:32:15;;;;;;;1999.90;999.90;;;;;;;21.11;73.35;101211.88;15780759;28;20087;-63
2021/07/10 21:39:48;;;;;;;1999.90;999.90;;;;;;;21.00;74.02;101217.47;15761770;28;20387;-61
2021/07/10 21:47:21;;;;;;;1999.90;999.90;;;;;;;20.87;74.16;101221.81;15777118;28;20111;-60
2021/07/10 21:54:54;;;;;;;1999.90;999.90;;;;;;;20.83;73.68;101218.94;15771841;28;20040;-61
2021/07/10 22:02:43;;;;;;;1999.90;999.90;;;;;;;20.81;73.80;101229.03;15737436;28;20338;-61
2021/07/10 22:10:37;;;;;;;1999.90;999.90;;;;;;;20.67;73.99;101216.38;15740688;28;20117;-61
2021/07/10 22:18:12;;;;;;;1999.90;999.90;;;;;;;20.56;74.33;101223.97;15778917;28;20076;-59
2021/07/10 22:25:59;;;;;;;1999.90;999.90;;;;;;;20.51;74.50;101231.97;15739600;28;20075;-61
2021/07/10 22:33:32;;;;;;;1999.90;999.90;;;;;;;20.35;74.26;101227.34;15759161;28;20039;-61
2021/07/10 22:41:09;;;;;;;1999.90;999.90;;;;;;;20.28;74.56;101226.44;15736999;28;20044;-61
2021/07/10 22:57:02;;;;;;;1999.90;999.90;;;;;;;20.08;75.04;101231.44;15743593;28;20062;-61
2021/07/10 23:04:35;;;;;;;1999.90;999.90;;;;;;;20.03;75.30;101232.63;15773565;28;20056;-64
2021/07/10 23:12:08;;;;;;;1999.90;999.90;;;;;;;19.94;75.39;101229.25;15780402;28;20049;-60
2021/07/10 23:19:42;;;;;;;1999.90;999.90;;;;;;;19.86;75.29;101230.38;15779780;28;20049;-61
2021/07/10 23:27:17;;;;;;;1999.90;999.90;;;;;;;19.77;74.90;101233.47;15768619;28;20044;-59
2021/07/10 23:34:51;;;;;;;1999.90;999.90;;;;;;;19.74;75.02;101230.59;15763228;28;20072;-59
2021/07/10 23:42:25;;;;;;;1999.90;999.90;;;;;;;19.64;75.83;101225.59;15781088;28;20044;-59
2021/07/10 23:49:57;;;;;;;1999.90;999.90;;;;;;;19.55;75.78;101217.34;15787669;28;20454;-61
2021/07/10 23:57:31;;;;;;;1999.90;999.90;;;;;;;19.52;75.67;101215.31;15779263;28;20135;-61
